sensor_id;sensor_type;location;lat;lon;timestamp;P1;durP1;ratioP1;P2;durP2;ratioP2
16282;SDS011;8249;48.708;9.030;2022-10-22T00:01:47;0.90;;;0.90;;
16282;SDS011;8249;48.708;9.030;2022-10-22T00:04:14;1.10;;;1.00;;
16282;SDS011;8249;48.708;9.030;2022-10-22T00:06:42;0.93;;;0.93;;
16282;SDS011;8249;48.708;9.030;2022-10-22T00:09:09;2.10;;;0.90;;
16282;SDS011;8249;48.708;9.030;2022-10-22T00:11:36;0.77;;;0.77;;
16282;SDS011;8249;48.708;9.030;2022-10-22T00:14:03;0.73;;;0.73;;
16282;SDS011;8249;48.708;9.030;2022-10-22T00:16:30;0.70;;;0.70;;
16282;SDS011;8249;48.708;9.030;2022-10-22T00:18:57;1.00;;;0.90;;
16282;SDS011;8249;48.708;9.030;2022-10-22T00:21:24;0.60;;;0.60;;
16282;SDS011;8249;48.708;9.030;2022-10-22T00:23:55;0.90;;;0.90;;
16282;SDS011;8249;48.708;9.030;2022-10-22T00:26:22;0.70;;;0.70;;
16282;SDS011;8249;48.708;9.030;2022-10-22T00:28:52;1.03;;;1.03;;
16282;SDS011;8249;48.708;9.030;2022-10-22T00:31:19;0.60;;;0.60;;
16282;SDS011;8249;48.708;9.030;2022-10-22T00:33:46;0.63;;;0.63;;
16282;SDS011;8249;48.708;9.030;2022-10-22T00:36:14;0.77;;;0.77;;
16282;SDS011;8249;48.708;9.030;2022-10-22T00:38:41;0.70;;;0.70;;
16282;SDS011;8249;48.708;9.030;2022-10-22T00:41:10;1.17;;;1.10;;
16282;SDS011;8249;48.708;9.030;2022-10-22T00:43:53;1.20;;;1.13;;
16282;SDS011;8249;48.708;9.030;2022-10-22T00:46:22;1.00;;;1.00;;
16282;SDS011;8249;48.708;9.030;2022-10-22T00:48:49;0.90;;;0.90;;
16282;SDS011;8249;48.708;9.030;2022-10-22T00:51:17;0.70;;;0.70;;
16282;SDS011;8249;48.708;9.030;2022-10-22T00:53:47;1.00;;;1.00;;
16282;SDS011;8249;48.708;9.030;2022-10-22T00:56:19;1.30;;;1.20;;
16282;SDS011;8249;48.708;9.030;2022-10-22T00:58:49;0.70;;;0.70;;
16282;SDS011;8249;48.708;9.030;2022-10-22T01:01:21;0.80;;;0.80;;
16282;SDS011;8249;48.708;9.030;2022-10-22T01:03:51;0.60;;;0.60;;
16282;SDS011;8249;48.708;9.030;2022-10-22T01:06:19;0.93;;;0.93;;
16282;SDS011;8249;48.708;9.030;2022-10-22T01:08:52;0.87;;;0.87;;
16282;SDS011;8249;48.708;9.030;2022-10-22T01:11:26;0.97;;;0.97;;
16282;SDS011;8249;48.708;9.030;2022-10-22T01:14:03;0.93;;;0.93;;
16282;SDS011;8249;48.708;9.030;2022-10-22T01:16:44;0.77;;;0.77;;
16282;SDS011;8249;48.708;9.030;2022-10-22T01:19:22;0.90;;;0.90;;
16282;SDS011;8249;48.708;9.030;2022-10-22T01:21:57;0.93;;;0.93;;
16282;SDS011;8249;48.708;9.030;2022-10-22T01:24:33;1.00;;;1.00;;
16282;SDS011;8249;48.708;9.030;2022-10-22T01:27:21;0.90;;;0.90;;
16282;SDS011;8249;48.708;9.030;2022-10-22T01:29:58;0.83;;;0.83;;
16282;SDS011;8249;48.708;9.030;2022-10-22T01:32:28;1.07;;;1.07;;
16282;SDS011;8249;48.708;9.030;2022-10-22T01:35:00;0.80;;;0.80;;
16282;SDS011;8249;48.708;9.030;2022-10-22T01:37:30;1.00;;;1.00;;
16282;SDS011;8249;48.708;9.030;2022-10-22T01:40:00;0.90;;;0.90;;
16282;SDS011;8249;48.708;9.030;2022-10-22T01:42:27;0.80;;;0.80;;
16282;SDS011;8249;48.708;9.030;2022-10-22T01:44:54;0.90;;;0.90;;
16282;SDS011;8249;48.708;9.030;2022-10-22T01:47:26;0.80;;;0.80;;
16282;SDS011;8249;48.708;9.030;2022-10-22T01:50:17;0.73;;;0.73;;
16282;SDS011;8249;48.708;9.030;2022-10-22T01:53:12;1.03;;;0.93;;
16282;SDS011;8249;48.708;9.030;2022-10-22T01:55:48;0.87;;;0.87;;
16282;SDS011;8249;48.708;9.030;2022-10-22T01:58:30;0.80;;;0.80;;
16282;SDS011;8249;48.708;9.030;2022-10-22T02:01:08;0.77;;;0.77;;
16282;SDS011;8249;48.708;9.030;2022-10-22T02:03:45;0.90;;;0.90;;
16282;SDS011;8249;48.708;9.030;2022-10-22T02:06:18;0.80;;;0.80;;
16282;SDS011;8249;48.708;9.030;2022-10-22T02:08:48;1.20;;;1.20;;
16282;SDS011;8249;48.708;9.030;2022-10-22T02:11:17;0.80;;;0.80;;
16282;SDS011;8249;48.708;9.030;2022-10-22T02:13:46;1.20;;;1.10;;
16282;SDS011;8249;48.708;9.030;2022-10-22T02:16:16;0.90;;;0.90;;
16282;SDS011;8249;48.708;9.030;2022-10-22T02:18:48;1.00;;;1.00;;
16282;SDS011;8249;48.708;9.030;2022-10-22T02:21:17;1.10;;;1.07;;
16282;SDS011;8249;48.708;9.030;2022-10-22T02:23:45;1.10;;;1.10;;
16282;SDS011;8249;48.708;9.030;2022-10-22T02:26:14;1.00;;;1.00;;
16282;SDS011;8249;48.708;9.030;2022-10-22T02:28:45;0.70;;;0.70;;
16282;SDS011;8249;48.708;9.030;2022-10-22T02:31:20;0.70;;;0.70;;
16282;SDS011;8249;48.708;9.030;2022-10-22T02:33:51;0.70;;;0.70;;
16282;SDS011;8249;48.708;9.030;2022-10-22T02:36:21;1.10;;;1.10;;
16282;SDS011;8249;48.708;9.030;2022-10-22T02:38:50;1.03;;;1.03;;
16282;SDS011;8249;48.708;9.030;2022-10-22T02:41:17;0.80;;;0.80;;
16282;SDS011;8249;48.708;9.030;2022-10-22T02:43:47;0.80;;;0.80;;
16282;SDS011;8249;48.708;9.030;2022-10-22T02:46:16;0.80;;;0.80;;
16282;SDS011;8249;48.708;9.030;2022-10-22T02:48:43;0.70;;;0.70;;
16282;SDS011;8249;48.708;9.030;2022-10-22T02:51:11;0.70;;;0.70;;
16282;SDS011;8249;48.708;9.030;2022-10-22T02:53:38;0.80;;;0.80;;
16282;SDS011;8249;48.708;9.030;2022-10-22T02:56:05;0.93;;;0.93;;
16282;SDS011;8249;48.708;9.030;2022-10-22T02:58:32;0.90;;;0.90;;
16282;SDS011;8249;48.708;9.030;2022-10-22T03:00:59;0.90;;;0.90;;
16282;SDS011;8249;48.708;9.030;2022-10-22T03:03:26;0.90;;;0.90;;
16282;SDS011;8249;48.708;9.030;2022-10-22T03:05:53;0.93;;;0.93;;
16282;SDS011;8249;48.708;9.030;2022-10-22T03:08:21;0.73;;;0.73;;
16282;SDS011;8249;48.708;9.030;2022-10-22T03:10:48;0.93;;;0.93;;
16282;SDS011;8249;48.708;9.030;2022-10-22T03:13:15;0.93;;;0.93;;
16282;SDS011;8249;48.708;9.030;2022-10-22T03:15:42;2.67;;;1.10;;
16282;SDS011;8249;48.708;9.030;2022-10-22T03:18:09;1.00;;;1.00;;
16282;SDS011;8249;48.708;9.030;2022-10-22T03:20:36;0.67;;;0.67;;
16282;SDS011;8249;48.708;9.030;2022-10-22T03:23:03;0.73;;;0.73;;
16282;SDS011;8249;48.708;9.030;2022-10-22T03:25:32;0.70;;;0.70;;
16282;SDS011;8249;48.708;9.030;2022-10-22T03:28:00;0.70;;;0.70;;
16282;SDS011;8249;48.708;9.030;2022-10-22T03:30:30;0.80;;;0.80;;
16282;SDS011;8249;48.708;9.030;2022-10-22T03:32:57;0.87;;;0.87;;
16282;SDS011;8249;48.708;9.030;2022-10-22T03:35:24;0.80;;;0.80;;
16282;SDS011;8249;48.708;9.030;2022-10-22T03:37:51;0.80;;;0.80;;
16282;SDS011;8249;48.708;9.030;2022-10-22T03:40:19;0.90;;;0.90;;
16282;SDS011;8249;48.708;9.030;2022-10-22T03:42:47;1.00;;;0.97;;
16282;SDS011;8249;48.708;9.030;2022-10-22T03:45:14;1.07;;;0.97;;
16282;SDS011;8249;48.708;9.030;2022-10-22T03:47:41;0.90;;;0.90;;
16282;SDS011;8249;48.708;9.030;2022-10-22T03:50:08;0.87;;;0.87;;
16282;SDS011;8249;48.708;9.030;2022-10-22T03:52:36;0.80;;;0.80;;
16282;SDS011;8249;48.708;9.030;2022-10-22T03:55:04;0.87;;;0.87;;
16282;SDS011;8249;48.708;9.030;2022-10-22T03:57:32;0.90;;;0.90;;
16282;SDS011;8249;48.708;9.030;2022-10-22T04:00:02;0.80;;;0.80;;
16282;SDS011;8249;48.708;9.030;2022-10-22T04:02:30;0.80;;;0.80;;
16282;SDS011;8249;48.708;9.030;2022-10-22T04:04:57;0.70;;;0.70;;
16282;SDS011;8249;48.708;9.030;2022-10-22T04:07:24;0.80;;;0.80;;
16282;SDS011;8249;48.708;9.030;2022-10-22T04:09:51;1.00;;;1.00;;
16282;SDS011;8249;48.708;9.030;2022-10-22T04:12:18;1.00;;;1.00;;
16282;SDS011;8249;48.708;9.030;2022-10-22T04:14:45;1.00;;;1.00;;
16282;SDS011;8249;48.708;9.030;2022-10-22T04:17:14;1.00;;;1.00;;
16282;SDS011;8249;48.708;9.030;2022-10-22T04:19:41;0.90;;;0.90;;
16282;SDS011;8249;48.708;9.030;2022-10-22T04:22:08;0.80;;;0.80;;
16282;SDS011;8249;48.708;9.030;2022-10-22T04:24:35;0.60;;;0.60;;
16282;SDS011;8249;48.708;9.030;2022-10-22T04:27:03;0.97;;;0.97;;
16282;SDS011;8249;48.708;9.030;2022-10-22T04:29:29;1.13;;;1.13;;
16282;SDS011;8249;48.708;9.030;2022-10-22T04:31:56;0.80;;;0.80;;
16282;SDS011;8249;48.708;9.030;2022-10-22T04:34:26;1.00;;;1.00;;
16282;SDS011;8249;48.708;9.030;2022-10-22T04:36:53;1.00;;;1.00;;
16282;SDS011;8249;48.708;9.030;2022-10-22T04:39:21;0.63;;;0.63;;
16282;SDS011;8249;48.708;9.030;2022-10-22T04:41:48;0.90;;;0.90;;
16282;SDS011;8249;48.708;9.030;2022-10-22T04:44:15;1.00;;;1.00;;
16282;SDS011;8249;48.708;9.030;2022-10-22T04:46:44;0.90;;;0.90;;
16282;SDS011;8249;48.708;9.030;2022-10-22T04:49:11;1.00;;;1.00;;
16282;SDS011;8249;48.708;9.030;2022-10-22T04:51:39;0.80;;;0.80;;
16282;SDS011;8249;48.708;9.030;2022-10-22T04:54:06;0.80;;;0.80;;
16282;SDS011;8249;48.708;9.030;2022-10-22T04:56:33;0.80;;;0.80;;
16282;SDS011;8249;48.708;9.030;2022-10-22T04:59:01;0.90;;;0.90;;
16282;SDS011;8249;48.708;9.030;2022-10-22T05:01:30;1.00;;;1.00;;
16282;SDS011;8249;48.708;9.030;2022-10-22T05:04:00;0.90;;;0.90;;
16282;SDS011;8249;48.708;9.030;2022-10-22T05:06:28;0.80;;;0.80;;
16282;SDS011;8249;48.708;9.030;2022-10-22T05:08:57;1.00;;;1.00;;
16282;SDS011;8249;48.708;9.030;2022-10-22T05:11:27;0.93;;;0.93;;
16282;SDS011;8249;48.708;9.030;2022-10-22T05:13:58;0.70;;;0.70;;
16282;SDS011;8249;48.708;9.030;2022-10-22T05:16:26;0.70;;;0.70;;
16282;SDS011;8249;48.708;9.030;2022-10-22T05:18:54;0.90;;;0.90;;
16282;SDS011;8249;48.708;9.030;2022-10-22T05:21:21;0.83;;;0.83;;
16282;SDS011;8249;48.708;9.030;2022-10-22T05:23:48;0.80;;;0.80;;
16282;SDS011;8249;48.708;9.030;2022-10-22T05:26:18;1.10;;;1.10;;
16282;SDS011;8249;48.708;9.030;2022-10-22T05:28:46;0.90;;;0.90;;
16282;SDS011;8249;48.708;9.030;2022-10-22T05:31:15;1.00;;;1.00;;
16282;SDS011;8249;48.708;9.030;2022-10-22T05:33:43;0.70;;;0.70;;
16282;SDS011;8249;48.708;9.030;2022-10-22T05:36:11;1.00;;;1.00;;
16282;SDS011;8249;48.708;9.030;2022-10-22T05:38:39;0.70;;;0.70;;
16282;SDS011;8249;48.708;9.030;2022-10-22T05:41:07;1.10;;;1.10;;
16282;SDS011;8249;48.708;9.030;2022-10-22T05:43:38;0.80;;;0.80;;
16282;SDS011;8249;48.708;9.030;2022-10-22T05:46:06;0.70;;;0.70;;
16282;SDS011;8249;48.708;9.030;2022-10-22T05:48:34;0.80;;;0.80;;
16282;SDS011;8249;48.708;9.030;2022-10-22T05:51:02;0.97;;;0.97;;
16282;SDS011;8249;48.708;9.030;2022-10-22T05:53:30;2.87;;;1.37;;
16282;SDS011;8249;48.708;9.030;2022-10-22T05:56:01;1.60;;;1.43;;
16282;SDS011;8249;48.708;9.030;2022-10-22T05:58:28;4.00;;;1.47;;
16282;SDS011;8249;48.708;9.030;2022-10-22T06:01:01;1.20;;;1.20;;
16282;SDS011;8249;48.708;9.030;2022-10-22T06:03:29;1.07;;;1.00;;
16282;SDS011;8249;48.708;9.030;2022-10-22T06:05:58;4.93;;;1.20;;
16282;SDS011;8249;48.708;9.030;2022-10-22T06:08:26;1.47;;;1.33;;
16282;SDS011;8249;48.708;9.030;2022-10-22T06:10:53;1.10;;;1.10;;
16282;SDS011;8249;48.708;9.030;2022-10-22T06:13:20;0.80;;;0.80;;
16282;SDS011;8249;48.708;9.030;2022-10-22T06:15:48;0.97;;;0.97;;
16282;SDS011;8249;48.708;9.030;2022-10-22T06:18:18;0.90;;;0.90;;
16282;SDS011;8249;48.708;9.030;2022-10-22T06:20:45;2.20;;;1.17;;
16282;SDS011;8249;48.708;9.030;2022-10-22T06:23:12;1.00;;;1.00;;
16282;SDS011;8249;48.708;9.030;2022-10-22T06:25:40;0.93;;;0.93;;
16282;SDS011;8249;48.708;9.030;2022-10-22T06:28:08;0.83;;;0.83;;
16282;SDS011;8249;48.708;9.030;2022-10-22T06:30:35;0.77;;;0.77;;
16282;SDS011;8249;48.708;9.030;2022-10-22T06:33:03;0.90;;;0.90;;
16282;SDS011;8249;48.708;9.030;2022-10-22T06:35:31;0.80;;;0.80;;
16282;SDS011;8249;48.708;9.030;2022-10-22T06:37:59;0.77;;;0.77;;
16282;SDS011;8249;48.708;9.030;2022-10-22T06:40:26;1.00;;;1.00;;
16282;SDS011;8249;48.708;9.030;2022-10-22T06:42:53;1.30;;;1.20;;
16282;SDS011;8249;48.708;9.030;2022-10-22T06:45:20;0.80;;;0.80;;
16282;SDS011;8249;48.708;9.030;2022-10-22T06:47:47;0.90;;;0.90;;
16282;SDS011;8249;48.708;9.030;2022-10-22T06:50:14;0.93;;;0.93;;
16282;SDS011;8249;48.708;9.030;2022-10-22T06:52:42;0.80;;;0.80;;
16282;SDS011;8249;48.708;9.030;2022-10-22T06:55:09;1.07;;;1.07;;
16282;SDS011;8249;48.708;9.030;2022-10-22T06:57:36;0.90;;;0.90;;
16282;SDS011;8249;48.708;9.030;2022-10-22T07:00:04;0.90;;;0.90;;
16282;SDS011;8249;48.708;9.030;2022-10-22T07:02:32;0.70;;;0.70;;
16282;SDS011;8249;48.708;9.030;2022-10-22T07:04:59;1.13;;;1.07;;
16282;SDS011;8249;48.708;9.030;2022-10-22T07:07:26;0.77;;;0.77;;
16282;SDS011;8249;48.708;9.030;2022-10-22T07:09:54;0.80;;;0.80;;
16282;SDS011;8249;48.708;9.030;2022-10-22T07:12:21;0.70;;;0.70;;
16282;SDS011;8249;48.708;9.030;2022-10-22T07:14:48;0.70;;;0.70;;
16282;SDS011;8249;48.708;9.030;2022-10-22T07:17:15;0.93;;;0.93;;
16282;SDS011;8249;48.708;9.030;2022-10-22T07:19:42;0.90;;;0.90;;
16282;SDS011;8249;48.708;9.030;2022-10-22T07:22:09;0.90;;;0.90;;
16282;SDS011;8249;48.708;9.030;2022-10-22T07:24:36;0.73;;;0.73;;
16282;SDS011;8249;48.708;9.030;2022-10-22T07:27:04;0.87;;;0.87;;
16282;SDS011;8249;48.708;9.030;2022-10-22T07:29:31;0.77;;;0.77;;
16282;SDS011;8249;48.708;9.030;2022-10-22T07:31:58;1.00;;;1.00;;
16282;SDS011;8249;48.708;9.030;2022-10-22T07:34:25;0.80;;;0.80;;
16282;SDS011;8249;48.708;9.030;2022-10-22T07:36:52;0.77;;;0.77;;
16282;SDS011;8249;48.708;9.030;2022-10-22T07:39:21;2.10;;;1.00;;
16282;SDS011;8249;48.708;9.030;2022-10-22T07:41:50;1.00;;;1.00;;
16282;SDS011;8249;48.708;9.030;2022-10-22T07:44:18;0.70;;;0.70;;
16282;SDS011;8249;48.708;9.030;2022-10-22T07:46:45;0.93;;;0.93;;
16282;SDS011;8249;48.708;9.030;2022-10-22T07:49:12;0.93;;;0.93;;
16282;SDS011;8249;48.708;9.030;2022-10-22T07:51:39;0.73;;;0.73;;
16282;SDS011;8249;48.708;9.030;2022-10-22T07:54:06;0.80;;;0.80;;
16282;SDS011;8249;48.708;9.030;2022-10-22T07:56:35;0.77;;;0.77;;
16282;SDS011;8249;48.708;9.030;2022-10-22T07:59:05;0.90;;;0.90;;
16282;SDS011;8249;48.708;9.030;2022-10-22T08:01:35;0.87;;;0.87;;
16282;SDS011;8249;48.708;9.030;2022-10-22T08:04:02;0.83;;;0.83;;
16282;SDS011;8249;48.708;9.030;2022-10-22T08:06:32;0.57;;;0.57;;
16282;SDS011;8249;48.708;9.030;2022-10-22T08:08:59;0.80;;;0.80;;
16282;SDS011;8249;48.708;9.030;2022-10-22T08:11:26;0.90;;;0.90;;
16282;SDS011;8249;48.708;9.030;2022-10-22T08:13:53;0.70;;;0.70;;
16282;SDS011;8249;48.708;9.030;2022-10-22T08:16:20;2.63;;;0.70;;
16282;SDS011;8249;48.708;9.030;2022-10-22T08:18:48;0.73;;;0.73;;
16282;SDS011;8249;48.708;9.030;2022-10-22T08:21:16;0.80;;;0.80;;
16282;SDS011;8249;48.708;9.030;2022-10-22T08:23:43;0.80;;;0.80;;
16282;SDS011;8249;48.708;9.030;2022-10-22T08:26:10;0.82;;;0.82;;
16282;SDS011;8249;48.708;9.030;2022-10-22T08:28:37;0.70;;;0.70;;
16282;SDS011;8249;48.708;9.030;2022-10-22T08:31:05;0.60;;;0.60;;
16282;SDS011;8249;48.708;9.030;2022-10-22T08:33:32;1.85;;;0.60;;
16282;SDS011;8249;48.708;9.030;2022-10-22T08:36:01;0.65;;;0.65;;
16282;SDS011;8249;48.708;9.030;2022-10-22T08:38:28;1.00;;;0.85;;
16282;SDS011;8249;48.708;9.030;2022-10-22T08:40:59;0.80;;;0.80;;
16282;SDS011;8249;48.708;9.030;2022-10-22T08:43:36;0.70;;;0.70;;
16282;SDS011;8249;48.708;9.030;2022-10-22T08:46:16;0.85;;;0.70;;
16282;SDS011;8249;48.708;9.030;2022-10-22T08:48:53;0.68;;;0.68;;
16282;SDS011;8249;48.708;9.030;2022-10-22T08:51:24;0.70;;;0.70;;
16282;SDS011;8249;48.708;9.030;2022-10-22T08:56:43;0.73;;;0.73;;
16282;SDS011;8249;48.708;9.030;2022-10-22T08:59:13;0.60;;;0.60;;
16282;SDS011;8249;48.708;9.030;2022-10-22T09:01:45;0.50;;;0.50;;
16282;SDS011;8249;48.708;9.030;2022-10-22T09:04:15;0.75;;;0.75;;
16282;SDS011;8249;48.708;9.030;2022-10-22T09:06:50;0.40;;;0.40;;
16282;SDS011;8249;48.708;9.030;2022-10-22T09:09:19;0.47;;;0.47;;
16282;SDS011;8249;48.708;9.030;2022-10-22T09:11:47;0.60;;;0.60;;
16282;SDS011;8249;48.708;9.030;2022-10-22T09:14:16;0.50;;;0.50;;
16282;SDS011;8249;48.708;9.030;2022-10-22T09:17:02;0.50;;;0.50;;
16282;SDS011;8249;48.708;9.030;2022-10-22T09:19:38;0.68;;;0.55;;
16282;SDS011;8249;48.708;9.030;2022-10-22T09:22:17;0.45;;;0.45;;
16282;SDS011;8249;48.708;9.030;2022-10-22T09:24:54;0.40;;;0.40;;
16282;SDS011;8249;48.708;9.030;2022-10-22T09:27:25;0.50;;;0.50;;
16282;SDS011;8249;48.708;9.030;2022-10-22T09:29:54;0.60;;;0.60;;
16282;SDS011;8249;48.708;9.030;2022-10-22T09:32:21;0.45;;;0.45;;
16282;SDS011;8249;48.708;9.030;2022-10-22T09:34:48;0.45;;;0.45;;
16282;SDS011;8249;48.708;9.030;2022-10-22T09:37:24;0.70;;;0.70;;
16282;SDS011;8249;48.708;9.030;2022-10-22T09:39:53;0.55;;;0.55;;
16282;SDS011;8249;48.708;9.030;2022-10-22T09:42:21;0.40;;;0.35;;
16282;SDS011;8249;48.708;9.030;2022-10-22T09:44:51;0.60;;;0.60;;
16282;SDS011;8249;48.708;9.030;2022-10-22T09:47:27;0.60;;;0.60;;
16282;SDS011;8249;48.708;9.030;2022-10-22T09:50:06;0.50;;;0.50;;
16282;SDS011;8249;48.708;9.030;2022-10-22T09:52:46;4.30;;;0.60;;
16282;SDS011;8249;48.708;9.030;2022-10-22T09:55:23;0.63;;;0.40;;
16282;SDS011;8249;48.708;9.030;2022-10-22T09:57:54;0.35;;;0.35;;
16282;SDS011;8249;48.708;9.030;2022-10-22T10:00:22;0.52;;;0.52;;
16282;SDS011;8249;48.708;9.030;2022-10-22T10:02:52;0.43;;;0.43;;
16282;SDS011;8249;48.708;9.030;2022-10-22T10:05:24;0.68;;;0.68;;
16282;SDS011;8249;48.708;9.030;2022-10-22T10:07:54;0.40;;;0.40;;
16282;SDS011;8249;48.708;9.030;2022-10-22T10:10:26;0.52;;;0.52;;
16282;SDS011;8249;48.708;9.030;2022-10-22T10:15:55;0.40;;;0.40;;
16282;SDS011;8249;48.708;9.030;2022-10-22T10:18:33;0.43;;;0.43;;
16282;SDS011;8249;48.708;9.030;2022-10-22T10:21:13;0.63;;;0.63;;
16282;SDS011;8249;48.708;9.030;2022-10-22T10:23:52;3.20;;;0.57;;
16282;SDS011;8249;48.708;9.030;2022-10-22T10:26:26;0.50;;;0.50;;
16282;SDS011;8249;48.708;9.030;2022-10-22T10:29:03;0.60;;;0.60;;
16282;SDS011;8249;48.708;9.030;2022-10-22T10:31:41;0.60;;;0.60;;
16282;SDS011;8249;48.708;9.030;2022-10-22T10:34:22;2.85;;;0.73;;
16282;SDS011;8249;48.708;9.030;2022-10-22T10:37:01;0.55;;;0.55;;
16282;SDS011;8249;48.708;9.030;2022-10-22T10:39:42;0.65;;;0.63;;
16282;SDS011;8249;48.708;9.030;2022-10-22T10:42:26;0.47;;;0.47;;
16282;SDS011;8249;48.708;9.030;2022-10-22T10:45:02;0.40;;;0.40;;
16282;SDS011;8249;48.708;9.030;2022-10-22T10:47:51;0.60;;;0.60;;
16282;SDS011;8249;48.708;9.030;2022-10-22T10:50:33;0.68;;;0.52;;
16282;SDS011;8249;48.708;9.030;2022-10-22T10:53:13;0.73;;;0.52;;
16282;SDS011;8249;48.708;9.030;2022-10-22T10:55:52;2.40;;;0.82;;
16282;SDS011;8249;48.708;9.030;2022-10-22T10:58:29;0.60;;;0.60;;
16282;SDS011;8249;48.708;9.030;2022-10-22T11:01:06;1.00;;;0.52;;
16282;SDS011;8249;48.708;9.030;2022-10-22T11:03:43;0.50;;;0.50;;
16282;SDS011;8249;48.708;9.030;2022-10-22T11:06:31;0.45;;;0.45;;
16282;SDS011;8249;48.708;9.030;2022-10-22T11:09:01;0.98;;;0.90;;
16282;SDS011;8249;48.708;9.030;2022-10-22T11:11:34;0.55;;;0.55;;
16282;SDS011;8249;48.708;9.030;2022-10-22T11:14:09;0.77;;;0.77;;
16282;SDS011;8249;48.708;9.030;2022-10-22T11:16:43;2.45;;;0.40;;
16282;SDS011;8249;48.708;9.030;2022-10-22T11:19:15;0.43;;;0.43;;
16282;SDS011;8249;48.708;9.030;2022-10-22T11:21:49;0.40;;;0.40;;
16282;SDS011;8249;48.708;9.030;2022-10-22T11:24:22;0.40;;;0.40;;
16282;SDS011;8249;48.708;9.030;2022-10-22T11:26:55;0.73;;;0.45;;
16282;SDS011;8249;48.708;9.030;2022-10-22T11:29:27;0.40;;;0.40;;
16282;SDS011;8249;48.708;9.030;2022-10-22T11:31:59;0.32;;;0.32;;
16282;SDS011;8249;48.708;9.030;2022-10-22T11:34:29;0.30;;;0.30;;
16282;SDS011;8249;48.708;9.030;2022-10-22T11:36:59;0.93;;;0.65;;
16282;SDS011;8249;48.708;9.030;2022-10-22T11:39:29;0.45;;;0.45;;
16282;SDS011;8249;48.708;9.030;2022-10-22T11:42:01;0.38;;;0.30;;
16282;SDS011;8249;48.708;9.030;2022-10-22T11:44:30;0.30;;;0.30;;
16282;SDS011;8249;48.708;9.030;2022-10-22T11:47:07;0.40;;;0.40;;
16282;SDS011;8249;48.708;9.030;2022-10-22T11:49:41;0.43;;;0.43;;
16282;SDS011;8249;48.708;9.030;2022-10-22T11:52:23;0.40;;;0.40;;
16282;SDS011;8249;48.708;9.030;2022-10-22T11:54:53;0.40;;;0.40;;
16282;SDS011;8249;48.708;9.030;2022-10-22T11:57:27;0.40;;;0.40;;
16282;SDS011;8249;48.708;9.030;2022-10-22T12:00:00;0.40;;;0.40;;
16282;SDS011;8249;48.708;9.030;2022-10-22T12:02:38;0.50;;;0.50;;
16282;SDS011;8249;48.708;9.030;2022-10-22T12:08:01;0.90;;;0.30;;
16282;SDS011;8249;48.708;9.030;2022-10-22T12:10:47;4.57;;;0.73;;
16282;SDS011;8249;48.708;9.030;2022-10-22T12:13:22;0.50;;;0.50;;
16282;SDS011;8249;48.708;9.030;2022-10-22T12:15:52;3.80;;;0.68;;
16282;SDS011;8249;48.708;9.030;2022-10-22T12:18:22;0.40;;;0.40;;
16282;SDS011;8249;48.708;9.030;2022-10-22T12:20:52;0.35;;;0.35;;
16282;SDS011;8249;48.708;9.030;2022-10-22T12:23:20;0.90;;;0.70;;
16282;SDS011;8249;48.708;9.030;2022-10-22T12:25:52;0.30;;;0.30;;
16282;SDS011;8249;48.708;9.030;2022-10-22T12:28:19;0.47;;;0.47;;
16282;SDS011;8249;48.708;9.030;2022-10-22T12:30:47;0.40;;;0.40;;
16282;SDS011;8249;48.708;9.030;2022-10-22T12:33:18;0.32;;;0.32;;
16282;SDS011;8249;48.708;9.030;2022-10-22T12:35:47;0.20;;;0.20;;
16282;SDS011;8249;48.708;9.030;2022-10-22T12:38:17;0.75;;;0.73;;
16282;SDS011;8249;48.708;9.030;2022-10-22T12:40:46;1.02;;;0.45;;
16282;SDS011;8249;48.708;9.030;2022-10-22T12:43:14;0.52;;;0.52;;
16282;SDS011;8249;48.708;9.030;2022-10-22T12:45:44;1.38;;;0.50;;
16282;SDS011;8249;48.708;9.030;2022-10-22T12:48:14;1.15;;;1.00;;
16282;SDS011;8249;48.708;9.030;2022-10-22T12:50:44;0.68;;;0.68;;
16282;SDS011;8249;48.708;9.030;2022-10-22T12:53:14;0.60;;;0.60;;
16282;SDS011;8249;48.708;9.030;2022-10-22T12:55:44;1.25;;;0.73;;
16282;SDS011;8249;48.708;9.030;2022-10-22T12:58:15;0.63;;;0.63;;
16282;SDS011;8249;48.708;9.030;2022-10-22T13:00:44;0.40;;;0.40;;
16282;SDS011;8249;48.708;9.030;2022-10-22T13:03:24;0.55;;;0.55;;
16282;SDS011;8249;48.708;9.030;2022-10-22T13:05:55;0.50;;;0.50;;
16282;SDS011;8249;48.708;9.030;2022-10-22T13:08:22;0.73;;;0.73;;
16282;SDS011;8249;48.708;9.030;2022-10-22T13:10:53;0.60;;;0.60;;
16282;SDS011;8249;48.708;9.030;2022-10-22T13:13:30;0.50;;;0.50;;
16282;SDS011;8249;48.708;9.030;2022-10-22T13:16:12;0.50;;;0.50;;
16282;SDS011;8249;48.708;9.030;2022-10-22T13:18:42;0.68;;;0.40;;
16282;SDS011;8249;48.708;9.030;2022-10-22T13:21:20;0.75;;;0.60;;
16282;SDS011;8249;48.708;9.030;2022-10-22T13:23:55;0.47;;;0.47;;
16282;SDS011;8249;48.708;9.030;2022-10-22T13:26:24;0.50;;;0.50;;
16282;SDS011;8249;48.708;9.030;2022-10-22T13:28:57;3.03;;;0.70;;
16282;SDS011;8249;48.708;9.030;2022-10-22T13:31:26;0.32;;;0.32;;
16282;SDS011;8249;48.708;9.030;2022-10-22T13:33:59;0.47;;;0.47;;
16282;SDS011;8249;48.708;9.030;2022-10-22T13:36:30;0.35;;;0.35;;
16282;SDS011;8249;48.708;9.030;2022-10-22T13:38:57;0.50;;;0.50;;
16282;SDS011;8249;48.708;9.030;2022-10-22T13:41:25;1.17;;;0.70;;
16282;SDS011;8249;48.708;9.030;2022-10-22T13:43:53;0.98;;;0.55;;
16282;SDS011;8249;48.708;9.030;2022-10-22T13:46:20;2.15;;;0.50;;
16282;SDS011;8249;48.708;9.030;2022-10-22T13:48:49;0.40;;;0.40;;
16282;SDS011;8249;48.708;9.030;2022-10-22T13:51:19;0.40;;;0.40;;
16282;SDS011;8249;48.708;9.030;2022-10-22T13:53:49;0.52;;;0.52;;
16282;SDS011;8249;48.708;9.030;2022-10-22T13:56:18;1.65;;;0.70;;
16282;SDS011;8249;48.708;9.030;2022-10-22T13:58:48;0.40;;;0.40;;
16282;SDS011;8249;48.708;9.030;2022-10-22T14:01:17;1.83;;;0.45;;
16282;SDS011;8249;48.708;9.030;2022-10-22T14:03:46;0.30;;;0.30;;
16282;SDS011;8249;48.708;9.030;2022-10-22T14:06:16;0.28;;;0.28;;
16282;SDS011;8249;48.708;9.030;2022-10-22T14:08:46;0.60;;;0.60;;
16282;SDS011;8249;48.708;9.030;2022-10-22T14:11:18;0.45;;;0.45;;
16282;SDS011;8249;48.708;9.030;2022-10-22T14:13:45;0.40;;;0.40;;
16282;SDS011;8249;48.708;9.030;2022-10-22T14:16:14;0.40;;;0.40;;
16282;SDS011;8249;48.708;9.030;2022-10-22T14:18:45;0.30;;;0.30;;
16282;SDS011;8249;48.708;9.030;2022-10-22T14:21:13;0.77;;;0.57;;
16282;SDS011;8249;48.708;9.030;2022-10-22T14:23:42;0.60;;;0.60;;
16282;SDS011;8249;48.708;9.030;2022-10-22T14:26:14;0.75;;;0.40;;
16282;SDS011;8249;48.708;9.030;2022-10-22T14:28:46;0.40;;;0.40;;
16282;SDS011;8249;48.708;9.030;2022-10-22T14:31:13;1.20;;;0.73;;
16282;SDS011;8249;48.708;9.030;2022-10-22T14:33:40;0.60;;;0.60;;
16282;SDS011;8249;48.708;9.030;2022-10-22T14:36:08;1.38;;;0.90;;
16282;SDS011;8249;48.708;9.030;2022-10-22T14:38:38;0.55;;;0.55;;
16282;SDS011;8249;48.708;9.030;2022-10-22T14:41:09;1.40;;;0.40;;
16282;SDS011;8249;48.708;9.030;2022-10-22T14:43:43;0.43;;;0.43;;
16282;SDS011;8249;48.708;9.030;2022-10-22T14:46:10;0.70;;;0.70;;
16282;SDS011;8249;48.708;9.030;2022-10-22T14:48:38;0.70;;;0.70;;
16282;SDS011;8249;48.708;9.030;2022-10-22T14:51:05;0.70;;;0.70;;
16282;SDS011;8249;48.708;9.030;2022-10-22T14:53:35;1.17;;;0.70;;
16282;SDS011;8249;48.708;9.030;2022-10-22T14:56:05;0.40;;;0.40;;
16282;SDS011;8249;48.708;9.030;2022-10-22T14:58:33;0.80;;;0.40;;
16282;SDS011;8249;48.708;9.030;2022-10-22T15:01:00;0.65;;;0.65;;
16282;SDS011;8249;48.708;9.030;2022-10-22T15:03:28;0.95;;;0.73;;
16282;SDS011;8249;48.708;9.030;2022-10-22T15:05:58;0.50;;;0.50;;
16282;SDS011;8249;48.708;9.030;2022-10-22T15:08:26;0.35;;;0.35;;
16282;SDS011;8249;48.708;9.030;2022-10-22T15:10:57;0.80;;;0.80;;
16282;SDS011;8249;48.708;9.030;2022-10-22T15:13:25;3.00;;;0.73;;
16282;SDS011;8249;48.708;9.030;2022-10-22T15:15:55;0.40;;;0.40;;
16282;SDS011;8249;48.708;9.030;2022-10-22T15:18:25;0.47;;;0.47;;
16282;SDS011;8249;48.708;9.030;2022-10-22T15:20:53;1.08;;;0.70;;
16282;SDS011;8249;48.708;9.030;2022-10-22T15:23:24;0.43;;;0.43;;
16282;SDS011;8249;48.708;9.030;2022-10-22T15:25:53;5.57;;;0.80;;
16282;SDS011;8249;48.708;9.030;2022-10-22T15:28:20;0.60;;;0.60;;